Flight Track Log - Related Links

Times and Time Zones

All times are in EDT time to prevent confusion due to time zone crossing. See the ASQ5941 flight status page for this flight to view local times or setup timezone preferences in your user account.

Time Position Orientation Groundspeed Altitude Reporting Facility
EDT Latitude Longitude Course Direction KTS MPH feet Rate Location/Type
Sun 02:49:13 PM 42.0167 -87.9500 90° East 192 221 2,700  Level Chicago TRACON
Sun 02:50:13 PM 42.0667 -87.9500 360° North 243 280 4,300 1,577 Climbing Chicago TRACON
Sun 02:51:00 PM 42.0398 -87.4793 83° East  Level FlightAware Approximate
Sun 02:51:30 PM 42.1361 -87.8692 41° Northeast 267 307 6,300  Level Chicago Center
Sun 02:52:00 PM 42.0550 -87.3343 78° East  Level FlightAware Approximate
Sun 02:52:32 PM 42.1517 -87.7372 81° East 296 341 9,000  Level Chicago Center
Sun 02:53:00 PM 42.0771 -87.1907 78° East  Level FlightAware Approximate
Sun 02:53:34 PM 42.1433 -87.6267 96° East 298 343 10,900  Level Chicago Center
Sun 02:54:00 PM 42.1000 -87.0479 90° East  Level FlightAware Approximate
Sun 02:54:36 PM 42.1464 -87.5061 88° East 320 368 12,000  Level Chicago Center
Sun 02:55:38 PM 42.1519 -87.3744 87° East 347 399 13,100 1,161 Climbing Chicago Center
Sun 02:56:40 PM 42.1575 -87.2369 87° East 362 417 14,400 1,500 Climbing Chicago Center
Sun 02:57:42 PM 42.1642 -87.0742 87° East 363 418 16,200 1,597 Climbing Chicago Center
Sun 02:58:44 PM 42.1683 -86.9406 88° East 358 412 17,700 1,306 Climbing Chicago Center
Sun 02:59:46 PM 42.1728 -86.8089 87° East 354 407 18,900 1,113 Climbing Chicago Center
Sun 03:00:48 PM 42.1783 -86.6611 87° East 368 423 20,000 1,065 Climbing Chicago Center
Sun 03:01:50 PM 42.1839 -86.5208 87° East 376 433 21,100 1,016 Climbing Chicago Center
Sun 03:02:52 PM 42.1872 -86.3775 88° East 381 438 22,100 960 Climbing Chicago Center
Sun 03:03:55 PM 42.1928 -86.2325 87° East 385 443 23,100 1,008 Climbing Chicago Center
Sun 03:04:57 PM 42.1961 -86.0867 88° East 388 447 24,200 1,113 Climbing Chicago Center
Sun 03:05:59 PM 42.2008 -85.9250 88° East 387 445 25,400 1,065 Climbing Chicago Center
Sun 03:07:01 PM 42.2047 -85.7794 88° East 390 449 26,400 968 Climbing Chicago Center
Sun 03:08:03 PM 42.2092 -85.6331 88° East 392 451 27,400 968 Climbing Chicago Center
Sun 03:09:05 PM 42.2119 -85.4878 88° East 391 450 28,400 1,113 Climbing Chicago Center
Sun 03:10:07 PM 42.2167 -85.3136 88° East 388 447 29,700 1,113 Climbing Chicago Center
Sun 03:11:09 PM 42.2203 -85.1658 88° East 394 453 30,700 1,016 Climbing Chicago Center
Sun 03:12:11 PM 42.2233 -85.0189 88° East 395 455 31,800 1,016 Climbing Chicago Center
Sun 03:13:13 PM 42.2272 -84.8725 88° East 393 452 32,800 968 Climbing Chicago Center
Sun 03:14:15 PM 42.2292 -84.7208 89° East 396 456 33,800 1,065 Climbing Chicago Center
Sun 03:15:17 PM 42.2319 -84.5492 89° East 391 450 35,000 576 Climbing Chicago Center
Sun 03:16:20 PM 42.2328 -84.3997 90° East 399 459 35,000  Level Chicago Center
Sun 03:17:00 PM 42.2272 -84.2933 94° East 395 455 35,000  Level Cleveland Center
Sun 03:18:00 PM 42.2219 -84.1331 92° East 412 474 35,000  Level Cleveland Center
Sun 03:19:00 PM 42.2183 -83.9758 92° East 417 480 35,000  Level Cleveland Center
Sun 03:20:00 PM 42.2125 -83.8214 93° East 417 480 35,000 350 Level Cleveland Center
Sun 03:21:00 PM 42.2061 -83.6697 93° East 417 480 35,700 800 Climbing Cleveland Center
Sun 03:22:00 PM 42.2014 -83.5292 93° East 417 480 36,600 650 Climbing Cleveland Center
Sun 03:23:00 PM 42.1969 -83.3775 92° East 410 472 37,000 200 Climbing Cleveland Center
Sun 03:24:00 PM 42.1906 -83.2092 93° East 405 466 37,000  Level Cleveland Center
Sun 03:25:00 PM 42.1856 -83.0575 92° East 427 491 37,000  Level Cleveland Center
Sun 03:26:00 PM 42.1744 -82.8919 95° East 432 497 37,000  Level Cleveland Center
Sun 03:27:00 PM 42.1714 -82.7236 91° East 444 511 37,000  Level Cleveland Center
Sun 03:28:00 PM 42.1575 -82.5813 95° East  Level FlightAware Approximate
Sun 03:29:00 PM 42.1583 -82.3925 95° East 444 511 37,000  Level Cleveland Center
Sun 03:30:00 PM 42.1483 -82.2300 95° East 444 511 37,000  Level Cleveland Center
Sun 03:31:00 PM 42.1444 -82.0478 92° East 444 511 37,000  Level Cleveland Center
Sun 03:32:00 PM 42.1358 -81.9019 95° East 444 511 37,000  Level Cleveland Center
Sun 03:33:00 PM 42.1272 -81.7422 94° East 438 504 37,000  Level Cleveland Center
Sun 03:34:00 PM 42.1183 -81.5769 94° East 438 504 37,000  Level Cleveland Center
Sun 03:35:00 PM 42.1111 -81.4144 93° East 438 504 37,000  Level Cleveland Center
Sun 03:36:00 PM 42.0997 -81.2492 95° East 445 512 37,000  Level Cleveland Center
Sun 03:37:00 PM 42.0922 -81.0728 93° East 439 505 37,000  Level Cleveland Center
Sun 03:38:00 PM 42.0825 -80.9133 95° East 433 498 37,000  Level Cleveland Center
Sun 03:39:00 PM 42.0725 -80.7511 95° East 438 504 37,000  Level Cleveland Center
Sun 03:40:00 PM 42.0642 -80.5886 94° East 444 511 37,000  Level Cleveland Center
Sun 03:41:00 PM 42.0536 -80.4239 95° East 444 511 37,000  Level Cleveland Center
Sun 03:42:00 PM 42.0450 -80.2589 94° East 444 511 37,000 -50 Level Cleveland Center
Sun 03:43:00 PM 42.0339 -80.0967 95° East 444 511 36,900 -600 Descending Cleveland Center
Sun 03:44:00 PM 42.0228 -79.9319 95° East 444 511 35,800 -950 Descending Cleveland Center
Sun 03:45:00 PM 42.0133 -79.7672 94° East 444 511 35,000 -400 Descending Cleveland Center
Sun 03:46:00 PM 42.0017 -79.6053 95° East 439 505 35,000  Level Cleveland Center
Sun 03:47:00 PM 41.9897 -79.4489 96° East 434 499 35,000  Level Cleveland Center
Sun 03:48:00 PM 41.9778 -79.2844 96° East 434 499 35,000 -700 Level Cleveland Center
Sun 03:49:00 PM 41.9653 -79.1172 96° East 439 505 33,600 -1,500 Descending Cleveland Center
Sun 03:50:00 PM 41.9503 -78.9444 97° East 451 519 32,000 -1,600 Descending Cleveland Center
Sun 03:51:00 PM 41.9417 -78.7714 94° East 456 525 30,400 -1,600 Descending Cleveland Center
Sun 03:52:00 PM 41.9261 -78.6017 97° East 462 532 28,800 -1,600 Descending Cleveland Center
Sun 03:53:00 PM 41.9128 -78.4347 96° East 462 532 27,200 -1,600 Descending Cleveland Center
Sun 03:54:00 PM 41.8992 -78.2650 96° East 457 526 25,600 -2,100 Descending Cleveland Center
Sun 03:55:00 PM 41.8831 -78.0953 97° East 457 526 23,000 -1,300 Descending Cleveland Center
Sun 03:56:00 PM 41.8711 -77.9342 96° East 452 520 23,000  Level Cleveland Center
Sun 03:56:39 PM 41.8583 -77.8475 101° East 456 525 23,000  Level New York Center
Sun 03:57:40 PM 41.8067 -77.7028 116° Southeast 440 506 23,000  Level New York Center
Sun 03:58:40 PM 41.7481 -77.5603 119° Southeast 440 506 23,000 -100 Level New York Center
Sun 03:59:40 PM 41.6928 -77.3964 114° Southeast 440 506 22,800 -595 Descending New York Center
Sun 04:00:41 PM 41.6728 -77.2306 99° East 440 506 21,800 -893 Descending New York Center
Sun 04:01:41 PM 41.6567 -77.0622 97° East 445 512 21,000 -1,300 Descending New York Center
Sun 04:02:41 PM 41.6397 -76.9081 98° East 440 506 19,200 -1,916 Descending New York Center
Sun 04:03:40 PM 41.6228 -76.7539 98° East 428 493 17,200 -2,118 Descending New York Center
Sun 04:04:40 PM 41.6053 -76.6025 99° East 417 480 15,000 -2,033 Descending New York Center
Sun 04:05:41 PM 41.5908 -76.4708 98° East 377 434 13,100 -1,835 Descending New York Center
Sun 04:06:41 PM 41.5761 -76.3392 98° East 354 407 11,300 -1,700 Descending New York Center
Sun 04:07:41 PM 41.5625 -76.2300 99° East 335 386 9,700 -1,627 Descending New York Center
Sun 04:08:39 PM 41.5444 -76.1231 103° East 309 356 8,100 -1,765 Descending New York Center
Sun 04:09:40 PM 41.5011 -76.0200 119° Southeast 288 331 6,200 -1,344 Descending New York Center
Sun 04:11:42 PM 41.4381 -75.8461 116° Southeast 267 307 4,000 -900 Descending New York Center
Sun 04:12:40 PM 41.4158 -75.7781 114° Southeast 250 288 3,500 -517 Descending New York Center

Login

Don't have an account? Register now (free) for customized features, flight alerts, and more!